sensor_id;sensor_type;location;lat;lon;timestamp;P1;durP1;ratioP1;P2;durP2;ratioP2
22040;SDS011;11184;52.444;13.578;2023-06-14T00:00:23;8.00;;;2.40;;
22040;SDS011;11184;52.444;13.578;2023-06-14T00:03:07;3.25;;;2.38;;
22040;SDS011;11184;52.444;13.578;2023-06-14T00:05:53;3.90;;;1.88;;
22040;SDS011;11184;52.444;13.578;2023-06-14T00:08:38;10.48;;;2.13;;
22040;SDS011;11184;52.444;13.578;2023-06-14T00:11:24;2.40;;;2.20;;
22040;SDS011;11184;52.444;13.578;2023-06-14T00:14:10;2.95;;;1.60;;
22040;SDS011;11184;52.444;13.578;2023-06-14T00:16:54;3.60;;;2.08;;
22040;SDS011;11184;52.444;13.578;2023-06-14T00:19:42;3.30;;;2.30;;
22040;SDS011;11184;52.444;13.578;2023-06-14T00:22:26;2.33;;;2.13;;
22040;SDS011;11184;52.444;13.578;2023-06-14T00:25:14;3.42;;;2.38;;
22040;SDS011;11184;52.444;13.578;2023-06-14T00:27:59;3.15;;;2.85;;
22040;SDS011;11184;52.444;13.578;2023-06-14T00:30:44;3.90;;;1.80;;
22040;SDS011;11184;52.444;13.578;2023-06-14T00:33:30;2.25;;;1.73;;
22040;SDS011;11184;52.444;13.578;2023-06-14T00:36:15;2.92;;;2.50;;
22040;SDS011;11184;52.444;13.578;2023-06-14T00:38:59;2.67;;;2.40;;
22040;SDS011;11184;52.444;13.578;2023-06-14T00:41:44;3.88;;;2.58;;
22040;SDS011;11184;52.444;13.578;2023-06-14T00:44:28;4.63;;;2.85;;
22040;SDS011;11184;52.444;13.578;2023-06-14T00:47:13;3.30;;;2.42;;
22040;SDS011;11184;52.444;13.578;2023-06-14T00:49:58;4.43;;;2.80;;
22040;SDS011;11184;52.444;13.578;2023-06-14T00:52:43;3.83;;;2.25;;
22040;SDS011;11184;52.444;13.578;2023-06-14T00:55:28;8.68;;;2.75;;
22040;SDS011;11184;52.444;13.578;2023-06-14T00:58:13;4.53;;;2.40;;
22040;SDS011;11184;52.444;13.578;2023-06-14T01:00:57;3.03;;;2.72;;
22040;SDS011;11184;52.444;13.578;2023-06-14T01:03:42;3.13;;;2.72;;
22040;SDS011;11184;52.444;13.578;2023-06-14T01:06:30;4.45;;;2.70;;
22040;SDS011;11184;52.444;13.578;2023-06-14T01:09:29;2.97;;;2.38;;
22040;SDS011;11184;52.444;13.578;2023-06-14T01:12:29;4.55;;;2.60;;
22040;SDS011;11184;52.444;13.578;2023-06-14T01:15:15;4.18;;;3.10;;
22040;SDS011;11184;52.444;13.578;2023-06-14T01:18:00;3.13;;;2.53;;
22040;SDS011;11184;52.444;13.578;2023-06-14T01:20:49;5.78;;;3.50;;
22040;SDS011;11184;52.444;13.578;2023-06-14T01:23:34;3.10;;;2.80;;
22040;SDS011;11184;52.444;13.578;2023-06-14T01:26:19;3.22;;;2.92;;
22040;SDS011;11184;52.444;13.578;2023-06-14T01:29:04;3.03;;;2.72;;
22040;SDS011;11184;52.444;13.578;2023-06-14T01:31:49;4.05;;;2.90;;
22040;SDS011;11184;52.444;13.578;2023-06-14T01:34:34;3.58;;;3.28;;
22040;SDS011;11184;52.444;13.578;2023-06-14T01:37:19;3.28;;;2.97;;
22040;SDS011;11184;52.444;13.578;2023-06-14T01:40:04;3.50;;;3.20;;
22040;SDS011;11184;52.444;13.578;2023-06-14T01:42:50;4.97;;;3.03;;
22040;SDS011;11184;52.444;13.578;2023-06-14T01:45:35;3.75;;;3.33;;
22040;SDS011;11184;52.444;13.578;2023-06-14T01:48:21;4.80;;;3.30;;
22040;SDS011;11184;52.444;13.578;2023-06-14T01:51:05;7.78;;;4.35;;
22040;SDS011;11184;52.444;13.578;2023-06-14T01:53:50;3.95;;;3.65;;
22040;SDS011;11184;52.444;13.578;2023-06-14T01:56:35;4.05;;;3.65;;
22040;SDS011;11184;52.444;13.578;2023-06-14T01:59:19;4.97;;;4.57;;
22040;SDS011;11184;52.444;13.578;2023-06-14T02:02:04;6.03;;;4.03;;
22040;SDS011;11184;52.444;13.578;2023-06-14T02:04:48;4.55;;;4.15;;
22040;SDS011;11184;52.444;13.578;2023-06-14T02:07:33;5.47;;;4.28;;
22040;SDS011;11184;52.444;13.578;2023-06-14T02:10:18;4.43;;;4.13;;
22040;SDS011;11184;52.444;13.578;2023-06-14T02:13:02;8.80;;;4.40;;
22040;SDS011;11184;52.444;13.578;2023-06-14T02:15:47;4.50;;;4.10;;
22040;SDS011;11184;52.444;13.578;2023-06-14T02:18:34;10.00;;;4.72;;
22040;SDS011;11184;52.444;13.578;2023-06-14T02:21:19;4.78;;;4.20;;
22040;SDS011;11184;52.444;13.578;2023-06-14T02:24:05;9.80;;;4.97;;
22040;SDS011;11184;52.444;13.578;2023-06-14T02:26:50;4.82;;;4.40;;
22040;SDS011;11184;52.444;13.578;2023-06-14T02:29:34;4.60;;;4.20;;
22040;SDS011;11184;52.444;13.578;2023-06-14T02:32:19;5.88;;;4.75;;
22040;SDS011;11184;52.444;13.578;2023-06-14T02:35:04;6.25;;;4.55;;
22040;SDS011;11184;52.444;13.578;2023-06-14T02:37:49;6.65;;;5.53;;
22040;SDS011;11184;52.444;13.578;2023-06-14T02:40:34;6.72;;;6.00;;
22040;SDS011;11184;52.444;13.578;2023-06-14T02:43:19;5.55;;;5.15;;
22040;SDS011;11184;52.444;13.578;2023-06-14T02:46:03;7.47;;;4.50;;
22040;SDS011;11184;52.444;13.578;2023-06-14T02:48:48;6.57;;;5.20;;
22040;SDS011;11184;52.444;13.578;2023-06-14T02:51:32;5.13;;;4.72;;
22040;SDS011;11184;52.444;13.578;2023-06-14T02:54:17;6.10;;;5.60;;
22040;SDS011;11184;52.444;13.578;2023-06-14T02:57:02;5.13;;;4.68;;
22040;SDS011;11184;52.444;13.578;2023-06-14T02:59:46;5.60;;;5.10;;
22040;SDS011;11184;52.444;13.578;2023-06-14T03:02:31;7.65;;;6.13;;
22040;SDS011;11184;52.444;13.578;2023-06-14T03:05:16;6.25;;;5.03;;
22040;SDS011;11184;52.444;13.578;2023-06-14T03:08:04;6.70;;;5.78;;
22040;SDS011;11184;52.444;13.578;2023-06-14T03:10:49;7.85;;;6.20;;
22040;SDS011;11184;52.444;13.578;2023-06-14T03:13:37;11.65;;;5.95;;
22040;SDS011;11184;52.444;13.578;2023-06-14T03:16:22;7.18;;;6.35;;
22040;SDS011;11184;52.444;13.578;2023-06-14T03:19:08;6.05;;;5.50;;
22040;SDS011;11184;52.444;13.578;2023-06-14T03:21:52;7.05;;;6.43;;
22040;SDS011;11184;52.444;13.578;2023-06-14T03:24:40;5.22;;;4.75;;
22040;SDS011;11184;52.444;13.578;2023-06-14T03:27:26;5.72;;;5.28;;
22040;SDS011;11184;52.444;13.578;2023-06-14T03:30:12;9.82;;;6.70;;
22040;SDS011;11184;52.444;13.578;2023-06-14T03:32:57;7.70;;;5.53;;
22040;SDS011;11184;52.444;13.578;2023-06-14T03:35:44;9.10;;;6.65;;
22040;SDS011;11184;52.444;13.578;2023-06-14T03:38:29;8.13;;;7.53;;
22040;SDS011;11184;52.444;13.578;2023-06-14T03:41:14;5.95;;;5.45;;
22040;SDS011;11184;52.444;13.578;2023-06-14T03:43:59;7.00;;;6.10;;
22040;SDS011;11184;52.444;13.578;2023-06-14T03:46:44;7.85;;;6.55;;
22040;SDS011;11184;52.444;13.578;2023-06-14T03:49:29;11.27;;;6.88;;
22040;SDS011;11184;52.444;13.578;2023-06-14T03:52:14;7.38;;;6.75;;
22040;SDS011;11184;52.444;13.578;2023-06-14T03:54:59;5.80;;;5.40;;
22040;SDS011;11184;52.444;13.578;2023-06-14T03:57:44;6.60;;;6.07;;
22040;SDS011;11184;52.444;13.578;2023-06-14T04:00:29;13.30;;;6.38;;
22040;SDS011;11184;52.444;13.578;2023-06-14T04:03:13;12.27;;;5.78;;
22040;SDS011;11184;52.444;13.578;2023-06-14T04:05:59;8.07;;;6.18;;
22040;SDS011;11184;52.444;13.578;2023-06-14T04:08:44;6.35;;;5.75;;
22040;SDS011;11184;52.444;13.578;2023-06-14T04:11:29;7.90;;;5.50;;
22040;SDS011;11184;52.444;13.578;2023-06-14T04:14:13;6.53;;;5.93;;
22040;SDS011;11184;52.444;13.578;2023-06-14T04:16:58;6.40;;;5.80;;
22040;SDS011;11184;52.444;13.578;2023-06-14T04:19:43;10.00;;;6.30;;
22040;SDS011;11184;52.444;13.578;2023-06-14T04:22:27;9.52;;;6.75;;
22040;SDS011;11184;52.444;13.578;2023-06-14T04:25:12;8.50;;;7.03;;
22040;SDS011;11184;52.444;13.578;2023-06-14T04:27:56;6.22;;;5.55;;
22040;SDS011;11184;52.444;13.578;2023-06-14T04:30:42;6.07;;;5.63;;
22040;SDS011;11184;52.444;13.578;2023-06-14T04:33:28;7.15;;;6.45;;
22040;SDS011;11184;52.444;13.578;2023-06-14T04:36:12;7.93;;;6.47;;
22040;SDS011;11184;52.444;13.578;2023-06-14T04:38:57;6.85;;;5.38;;
22040;SDS011;11184;52.444;13.578;2023-06-14T04:41:42;10.38;;;6.90;;
22040;SDS011;11184;52.444;13.578;2023-06-14T04:44:27;7.15;;;6.35;;
22040;SDS011;11184;52.444;13.578;2023-06-14T04:47:15;11.07;;;5.82;;
22040;SDS011;11184;52.444;13.578;2023-06-14T04:50:00;7.93;;;5.65;;
22040;SDS011;11184;52.444;13.578;2023-06-14T04:52:45;7.93;;;5.75;;
22040;SDS011;11184;52.444;13.578;2023-06-14T04:55:34;7.00;;;6.30;;
22040;SDS011;11184;52.444;13.578;2023-06-14T04:58:19;6.35;;;5.85;;
22040;SDS011;11184;52.444;13.578;2023-06-14T05:01:04;8.85;;;6.70;;
22040;SDS011;11184;52.444;13.578;2023-06-14T05:03:49;6.13;;;5.55;;
22040;SDS011;11184;52.444;13.578;2023-06-14T05:06:34;6.95;;;6.35;;
22040;SDS011;11184;52.444;13.578;2023-06-14T05:09:20;7.50;;;6.85;;
22040;SDS011;11184;52.444;13.578;2023-06-14T05:12:04;7.28;;;5.53;;
22040;SDS011;11184;52.444;13.578;2023-06-14T05:14:52;5.72;;;5.28;;
22040;SDS011;11184;52.444;13.578;2023-06-14T05:17:36;9.77;;;6.55;;
22040;SDS011;11184;52.444;13.578;2023-06-14T05:20:22;8.27;;;6.25;;
22040;SDS011;11184;52.444;13.578;2023-06-14T05:23:08;7.20;;;6.50;;
22040;SDS011;11184;52.444;13.578;2023-06-14T05:25:58;8.27;;;7.28;;
22040;SDS011;11184;52.444;13.578;2023-06-14T05:28:43;9.45;;;7.18;;
22040;SDS011;11184;52.444;13.578;2023-06-14T05:31:28;6.90;;;6.30;;
22040;SDS011;11184;52.444;13.578;2023-06-14T05:34:13;7.85;;;6.43;;
22040;SDS011;11184;52.444;13.578;2023-06-14T05:36:57;6.60;;;6.00;;
22040;SDS011;11184;52.444;13.578;2023-06-14T05:39:42;7.57;;;6.53;;
22040;SDS011;11184;52.444;13.578;2023-06-14T05:42:27;14.32;;;6.72;;
22040;SDS011;11184;52.444;13.578;2023-06-14T05:45:11;7.22;;;6.55;;
22040;SDS011;11184;52.444;13.578;2023-06-14T05:47:57;8.02;;;7.22;;
22040;SDS011;11184;52.444;13.578;2023-06-14T05:50:42;12.65;;;7.35;;
22040;SDS011;11184;52.444;13.578;2023-06-14T05:53:27;11.13;;;6.60;;
22040;SDS011;11184;52.444;13.578;2023-06-14T05:56:12;9.50;;;6.07;;
22040;SDS011;11184;52.444;13.578;2023-06-14T05:58:57;9.02;;;6.60;;
22040;SDS011;11184;52.444;13.578;2023-06-14T06:01:44;8.35;;;6.20;;
22040;SDS011;11184;52.444;13.578;2023-06-14T06:04:29;8.27;;;6.25;;
22040;SDS011;11184;52.444;13.578;2023-06-14T06:07:14;11.68;;;6.60;;
22040;SDS011;11184;52.444;13.578;2023-06-14T06:09:59;6.68;;;5.60;;
22040;SDS011;11184;52.444;13.578;2023-06-14T06:12:43;8.57;;;5.82;;
22040;SDS011;11184;52.444;13.578;2023-06-14T06:15:28;11.60;;;5.78;;
22040;SDS011;11184;52.444;13.578;2023-06-14T06:18:16;10.25;;;5.75;;
22040;SDS011;11184;52.444;13.578;2023-06-14T06:21:00;7.50;;;5.82;;
22040;SDS011;11184;52.444;13.578;2023-06-14T06:23:47;11.57;;;6.75;;
22040;SDS011;11184;52.444;13.578;2023-06-14T06:26:31;10.63;;;6.43;;
22040;SDS011;11184;52.444;13.578;2023-06-14T06:29:16;7.75;;;6.20;;
22040;SDS011;11184;52.444;13.578;2023-06-14T06:32:01;7.88;;;6.75;;
22040;SDS011;11184;52.444;13.578;2023-06-14T06:34:46;10.98;;;6.35;;
22040;SDS011;11184;52.444;13.578;2023-06-14T06:37:31;7.40;;;6.78;;
22040;SDS011;11184;52.444;13.578;2023-06-14T06:40:15;13.88;;;6.35;;
22040;SDS011;11184;52.444;13.578;2023-06-14T06:43:01;6.93;;;6.22;;
22040;SDS011;11184;52.444;13.578;2023-06-14T06:45:46;8.48;;;6.40;;
22040;SDS011;11184;52.444;13.578;2023-06-14T06:48:31;12.73;;;7.00;;
22040;SDS011;11184;52.444;13.578;2023-06-14T06:51:16;8.88;;;5.85;;
22040;SDS011;11184;52.444;13.578;2023-06-14T06:54:01;8.13;;;6.25;;
22040;SDS011;11184;52.444;13.578;2023-06-14T06:56:45;6.28;;;5.55;;
22040;SDS011;11184;52.444;13.578;2023-06-14T06:59:30;8.55;;;5.60;;
22040;SDS011;11184;52.444;13.578;2023-06-14T07:02:15;8.00;;;6.18;;
22040;SDS011;11184;52.444;13.578;2023-06-14T07:05:00;7.78;;;6.30;;
22040;SDS011;11184;52.444;13.578;2023-06-14T07:07:45;8.23;;;5.72;;
22040;SDS011;11184;52.444;13.578;2023-06-14T07:10:29;19.52;;;6.35;;
22040;SDS011;11184;52.444;13.578;2023-06-14T07:13:14;5.97;;;5.38;;
22040;SDS011;11184;52.444;13.578;2023-06-14T07:15:59;6.03;;;5.45;;
22040;SDS011;11184;52.444;13.578;2023-06-14T07:18:44;7.63;;;5.80;;
22040;SDS011;11184;52.444;13.578;2023-06-14T07:21:29;6.35;;;5.57;;
22040;SDS011;11184;52.444;13.578;2023-06-14T07:24:14;12.82;;;5.80;;
22040;SDS011;11184;52.444;13.578;2023-06-14T07:26:59;7.82;;;5.88;;
22040;SDS011;11184;52.444;13.578;2023-06-14T07:29:45;6.53;;;4.25;;
22040;SDS011;11184;52.444;13.578;2023-06-14T07:32:29;5.05;;;4.72;;
22040;SDS011;11184;52.444;13.578;2023-06-14T07:35:14;5.97;;;5.20;;
22040;SDS011;11184;52.444;13.578;2023-06-14T07:37:58;6.30;;;5.18;;
22040;SDS011;11184;52.444;13.578;2023-06-14T07:40:43;9.48;;;5.15;;
22040;SDS011;11184;52.444;13.578;2023-06-14T07:43:27;11.43;;;4.80;;
22040;SDS011;11184;52.444;13.578;2023-06-14T07:46:12;9.13;;;4.85;;
22040;SDS011;11184;52.444;13.578;2023-06-14T07:48:57;5.78;;;5.15;;
22040;SDS011;11184;52.444;13.578;2023-06-14T07:51:41;4.85;;;4.38;;
22040;SDS011;11184;52.444;13.578;2023-06-14T07:54:28;9.90;;;4.15;;
22040;SDS011;11184;52.444;13.578;2023-06-14T07:57:13;6.15;;;5.03;;
22040;SDS011;11184;52.444;13.578;2023-06-14T07:59:58;9.55;;;4.82;;
22040;SDS011;11184;52.444;13.578;2023-06-14T08:02:43;5.10;;;4.05;;
22040;SDS011;11184;52.444;13.578;2023-06-14T08:05:28;7.32;;;4.53;;
22040;SDS011;11184;52.444;13.578;2023-06-14T08:08:12;7.93;;;4.43;;
22040;SDS011;11184;52.444;13.578;2023-06-14T08:10:57;4.47;;;4.05;;
22040;SDS011;11184;52.444;13.578;2023-06-14T08:13:42;7.43;;;4.53;;
22040;SDS011;11184;52.444;13.578;2023-06-14T08:16:26;5.75;;;4.43;;
22040;SDS011;11184;52.444;13.578;2023-06-14T08:19:11;5.35;;;4.32;;
22040;SDS011;11184;52.444;13.578;2023-06-14T08:21:56;4.68;;;4.20;;
22040;SDS011;11184;52.444;13.578;2023-06-14T08:24:41;9.07;;;4.07;;
22040;SDS011;11184;52.444;13.578;2023-06-14T08:27:26;4.93;;;4.25;;
22040;SDS011;11184;52.444;13.578;2023-06-14T08:30:11;6.47;;;4.20;;
22040;SDS011;11184;52.444;13.578;2023-06-14T08:32:56;11.82;;;4.18;;
22040;SDS011;11184;52.444;13.578;2023-06-14T08:35:41;3.60;;;3.10;;
22040;SDS011;11184;52.444;13.578;2023-06-14T08:38:25;7.95;;;3.47;;
22040;SDS011;11184;52.444;13.578;2023-06-14T08:41:10;7.88;;;4.68;;
22040;SDS011;11184;52.444;13.578;2023-06-14T08:43:57;6.55;;;3.78;;
22040;SDS011;11184;52.444;13.578;2023-06-14T08:46:42;4.63;;;3.15;;
22040;SDS011;11184;52.444;13.578;2023-06-14T08:49:27;6.10;;;2.92;;
22040;SDS011;11184;52.444;13.578;2023-06-14T08:52:13;4.65;;;3.10;;
22040;SDS011;11184;52.444;13.578;2023-06-14T08:54:58;3.33;;;2.50;;
22040;SDS011;11184;52.444;13.578;2023-06-14T08:57:44;7.32;;;3.30;;
22040;SDS011;11184;52.444;13.578;2023-06-14T09:00:29;4.85;;;3.13;;
22040;SDS011;11184;52.444;13.578;2023-06-14T09:03:14;5.13;;;2.97;;
22040;SDS011;11184;52.444;13.578;2023-06-14T09:05:59;10.40;;;4.55;;
22040;SDS011;11184;52.444;13.578;2023-06-14T09:08:45;6.10;;;3.05;;
22040;SDS011;11184;52.444;13.578;2023-06-14T09:11:30;18.63;;;3.33;;
22040;SDS011;11184;52.444;13.578;2023-06-14T09:14:15;4.63;;;2.42;;
22040;SDS011;11184;52.444;13.578;2023-06-14T09:17:00;5.00;;;2.97;;
22040;SDS011;11184;52.444;13.578;2023-06-14T09:19:45;4.15;;;3.15;;
22040;SDS011;11184;52.444;13.578;2023-06-14T09:22:29;9.18;;;2.95;;
22040;SDS011;11184;52.444;13.578;2023-06-14T09:25:14;3.17;;;2.80;;
22040;SDS011;11184;52.444;13.578;2023-06-14T09:27:59;4.28;;;2.65;;
22040;SDS011;11184;52.444;13.578;2023-06-14T09:30:43;6.00;;;4.43;;
22040;SDS011;11184;52.444;13.578;2023-06-14T09:33:28;7.93;;;3.33;;
22040;SDS011;11184;52.444;13.578;2023-06-14T09:36:22;3.55;;;2.97;;
22040;SDS011;11184;52.444;13.578;2023-06-14T09:39:08;5.68;;;3.33;;
22040;SDS011;11184;52.444;13.578;2023-06-14T09:41:52;2.65;;;2.28;;
22040;SDS011;11184;52.444;13.578;2023-06-14T09:44:37;4.75;;;2.97;;
22040;SDS011;11184;52.444;13.578;2023-06-14T09:47:22;5.05;;;2.67;;
22040;SDS011;11184;52.444;13.578;2023-06-14T09:50:07;8.43;;;3.13;;
22040;SDS011;11184;52.444;13.578;2023-06-14T09:52:52;5.72;;;3.65;;
22040;SDS011;11184;52.444;13.578;2023-06-14T09:55:38;2.83;;;2.15;;
22040;SDS011;11184;52.444;13.578;2023-06-14T09:58:25;5.90;;;3.47;;
22040;SDS011;11184;52.444;13.578;2023-06-14T10:01:10;4.95;;;2.22;;
22040;SDS011;11184;52.444;13.578;2023-06-14T10:04:06;2.78;;;2.45;;
22040;SDS011;11184;52.444;13.578;2023-06-14T10:06:51;10.90;;;2.78;;
22040;SDS011;11184;52.444;13.578;2023-06-14T10:09:37;6.22;;;2.72;;
22040;SDS011;11184;52.444;13.578;2023-06-14T10:12:24;6.03;;;2.72;;
22040;SDS011;11184;52.444;13.578;2023-06-14T10:15:10;4.05;;;2.47;;
22040;SDS011;11184;52.444;13.578;2023-06-14T10:17:59;2.80;;;2.45;;
22040;SDS011;11184;52.444;13.578;2023-06-14T10:20:52;3.90;;;2.40;;
22040;SDS011;11184;52.444;13.578;2023-06-14T10:23:40;8.88;;;3.05;;
22040;SDS011;11184;52.444;13.578;2023-06-14T10:26:26;5.68;;;2.78;;
22040;SDS011;11184;52.444;13.578;2023-06-14T10:29:11;5.72;;;2.80;;
22040;SDS011;11184;52.444;13.578;2023-06-14T10:31:56;6.43;;;2.83;;
22040;SDS011;11184;52.444;13.578;2023-06-14T10:34:41;11.73;;;2.88;;
22040;SDS011;11184;52.444;13.578;2023-06-14T10:37:25;4.00;;;2.88;;
22040;SDS011;11184;52.444;13.578;2023-06-14T10:40:10;8.27;;;3.25;;
22040;SDS011;11184;52.444;13.578;2023-06-14T10:43:23;5.38;;;2.63;;
22040;SDS011;11184;52.444;13.578;2023-06-14T10:46:18;4.45;;;3.13;;
22040;SDS011;11184;52.444;13.578;2023-06-14T10:49:06;3.35;;;2.65;;
22040;SDS011;11184;52.444;13.578;2023-06-14T10:51:53;4.60;;;2.75;;
22040;SDS011;11184;52.444;13.578;2023-06-14T10:57:46;5.80;;;2.70;;
22040;SDS011;11184;52.444;13.578;2023-06-14T11:00:34;3.42;;;2.70;;
22040;SDS011;11184;52.444;13.578;2023-06-14T11:06:13;6.88;;;3.25;;
22040;SDS011;11184;52.444;13.578;2023-06-14T11:12:02;6.22;;;2.75;;
22040;SDS011;11184;52.444;13.578;2023-06-14T11:14:47;7.10;;;3.15;;
22040;SDS011;11184;52.444;13.578;2023-06-14T11:17:32;6.03;;;3.30;;
22040;SDS011;11184;52.444;13.578;2023-06-14T11:20:17;11.13;;;3.33;;
22040;SDS011;11184;52.444;13.578;2023-06-14T11:23:03;3.50;;;2.88;;
22040;SDS011;11184;52.444;13.578;2023-06-14T11:25:49;6.30;;;3.05;;
22040;SDS011;11184;52.444;13.578;2023-06-14T11:28:43;4.72;;;3.05;;
22040;SDS011;11184;52.444;13.578;2023-06-14T11:31:28;4.75;;;2.50;;
22040;SDS011;11184;52.444;13.578;2023-06-14T11:34:13;6.00;;;2.80;;
22040;SDS011;11184;52.444;13.578;2023-06-14T11:36:59;5.03;;;3.00;;
22040;SDS011;11184;52.444;13.578;2023-06-14T11:39:44;4.15;;;2.97;;
22040;SDS011;11184;52.444;13.578;2023-06-14T11:42:29;6.00;;;3.58;;
22040;SDS011;11184;52.444;13.578;2023-06-14T11:45:13;3.10;;;2.38;;
22040;SDS011;11184;52.444;13.578;2023-06-14T11:47:59;3.35;;;2.83;;
22040;SDS011;11184;52.444;13.578;2023-06-14T11:50:43;2.58;;;2.38;;
22040;SDS011;11184;52.444;13.578;2023-06-14T11:53:28;5.93;;;2.30;;
22040;SDS011;11184;52.444;13.578;2023-06-14T11:56:14;4.90;;;2.88;;
22040;SDS011;11184;52.444;13.578;2023-06-14T11:58:59;3.90;;;2.42;;
22040;SDS011;11184;52.444;13.578;2023-06-14T12:01:44;3.95;;;3.13;;
22040;SDS011;11184;52.444;13.578;2023-06-14T12:04:29;8.85;;;3.17;;
22040;SDS011;11184;52.444;13.578;2023-06-14T12:07:15;5.50;;;2.55;;
22040;SDS011;11184;52.444;13.578;2023-06-14T12:12:46;5.28;;;2.60;;
22040;SDS011;11184;52.444;13.578;2023-06-14T12:15:31;5.47;;;3.22;;
22040;SDS011;11184;52.444;13.578;2023-06-14T12:18:15;4.25;;;2.67;;
22040;SDS011;11184;52.444;13.578;2023-06-14T12:21:00;2.22;;;1.90;;
22040;SDS011;11184;52.444;13.578;2023-06-14T12:23:46;4.30;;;2.72;;
22040;SDS011;11184;52.444;13.578;2023-06-14T12:26:31;3.45;;;2.30;;
22040;SDS011;11184;52.444;13.578;2023-06-14T12:29:16;7.32;;;3.20;;
22040;SDS011;11184;52.444;13.578;2023-06-14T12:32:03;4.10;;;2.63;;
22040;SDS011;11184;52.444;13.578;2023-06-14T12:34:49;6.03;;;2.20;;
22040;SDS011;11184;52.444;13.578;2023-06-14T12:37:33;4.35;;;2.88;;
22040;SDS011;11184;52.444;13.578;2023-06-14T12:40:19;7.43;;;3.03;;
22040;SDS011;11184;52.444;13.578;2023-06-14T12:50:43;4.05;;;2.88;;
22040;SDS011;11184;52.444;13.578;2023-06-14T12:53:48;8.68;;;3.38;;
22040;SDS011;11184;52.444;13.578;2023-06-14T13:09:54;3.22;;;2.08;;
22040;SDS011;11184;52.444;13.578;2023-06-14T13:12:41;3.88;;;2.47;;
22040;SDS011;11184;52.444;13.578;2023-06-14T13:15:55;4.70;;;2.20;;
22040;SDS011;11184;52.444;13.578;2023-06-14T13:18:40;4.45;;;2.20;;
22040;SDS011;11184;52.444;13.578;2023-06-14T13:31:30;3.17;;;2.60;;
22040;SDS011;11184;52.444;13.578;2023-06-14T13:37:44;10.98;;;3.28;;
22040;SDS011;11184;52.444;13.578;2023-06-14T13:40:38;5.65;;;3.10;;
22040;SDS011;11184;52.444;13.578;2023-06-14T13:47:01;7.10;;;2.72;;
22040;SDS011;11184;52.444;13.578;2023-06-14T13:50:06;6.93;;;3.35;;
22040;SDS011;11184;52.444;13.578;2023-06-14T13:52:54;3.53;;;2.33;;
22040;SDS011;11184;52.444;13.578;2023-06-14T14:08:32;4.20;;;2.40;;
22040;SDS011;11184;52.444;13.578;2023-06-14T14:11:23;5.65;;;2.63;;
22040;SDS011;11184;52.444;13.578;2023-06-14T14:14:29;3.67;;;3.13;;
22040;SDS011;11184;52.444;13.578;2023-06-14T14:20:18;3.60;;;2.60;;
22040;SDS011;11184;52.444;13.578;2023-06-14T14:23:03;10.02;;;2.90;;
22040;SDS011;11184;52.444;13.578;2023-06-14T14:25:48;5.07;;;2.35;;
22040;SDS011;11184;52.444;13.578;2023-06-14T14:28:33;6.43;;;2.42;;
22040;SDS011;11184;52.444;13.578;2023-06-14T14:31:18;6.88;;;2.97;;
22040;SDS011;11184;52.444;13.578;2023-06-14T14:34:03;9.73;;;3.83;;
22040;SDS011;11184;52.444;13.578;2023-06-14T14:36:48;5.38;;;2.97;;
22040;SDS011;11184;52.444;13.578;2023-06-14T14:39:33;8.30;;;2.65;;
22040;SDS011;11184;52.444;13.578;2023-06-14T14:42:18;3.97;;;2.97;;
22040;SDS011;11184;52.444;13.578;2023-06-14T14:45:03;3.47;;;2.63;;
22040;SDS011;11184;52.444;13.578;2023-06-14T14:47:48;6.70;;;2.85;;
22040;SDS011;11184;52.444;13.578;2023-06-14T14:50:33;5.32;;;2.92;;
22040;SDS011;11184;52.444;13.578;2023-06-14T14:53:18;10.25;;;2.97;;
22040;SDS011;11184;52.444;13.578;2023-06-14T14:56:03;4.72;;;2.50;;
22040;SDS011;11184;52.444;13.578;2023-06-14T14:58:50;5.80;;;3.33;;
22040;SDS011;11184;52.444;13.578;2023-06-14T15:01:35;3.33;;;2.72;;
22040;SDS011;11184;52.444;13.578;2023-06-14T15:04:20;5.18;;;2.72;;
22040;SDS011;11184;52.444;13.578;2023-06-14T15:07:04;3.13;;;2.78;;
22040;SDS011;11184;52.444;13.578;2023-06-14T15:09:49;4.65;;;2.75;;
22040;SDS011;11184;52.444;13.578;2023-06-14T15:12:35;3.55;;;2.42;;
22040;SDS011;11184;52.444;13.578;2023-06-14T15:15:19;8.82;;;2.33;;
22040;SDS011;11184;52.444;13.578;2023-06-14T15:18:04;10.07;;;3.10;;
22040;SDS011;11184;52.444;13.578;2023-06-14T15:20:49;2.85;;;2.47;;
22040;SDS011;11184;52.444;13.578;2023-06-14T15:23:33;6.38;;;2.92;;
22040;SDS011;11184;52.444;13.578;2023-06-14T15:26:18;6.97;;;2.90;;
22040;SDS011;11184;52.444;13.578;2023-06-14T15:29:03;9.77;;;2.55;;
22040;SDS011;11184;52.444;13.578;2023-06-14T15:31:48;6.72;;;3.58;;
22040;SDS011;11184;52.444;13.578;2023-06-14T15:34:33;4.88;;;2.28;;
22040;SDS011;11184;52.444;13.578;2023-06-14T15:37:20;3.67;;;2.30;;
22040;SDS011;11184;52.444;13.578;2023-06-14T15:40:05;4.45;;;2.38;;
22040;SDS011;11184;52.444;13.578;2023-06-14T15:42:50;6.10;;;2.53;;
22040;SDS011;11184;52.444;13.578;2023-06-14T15:45:34;10.40;;;2.90;;
22040;SDS011;11184;52.444;13.578;2023-06-14T15:48:21;5.72;;;2.53;;
22040;SDS011;11184;52.444;13.578;2023-06-14T15:51:05;3.05;;;2.03;;
22040;SDS011;11184;52.444;13.578;2023-06-14T15:53:50;7.65;;;3.33;;
22040;SDS011;11184;52.444;13.578;2023-06-14T15:56:36;3.53;;;3.22;;
22040;SDS011;11184;52.444;13.578;2023-06-14T15:59:20;7.80;;;2.67;;
22040;SDS011;11184;52.444;13.578;2023-06-14T16:02:05;5.00;;;2.42;;
22040;SDS011;11184;52.444;13.578;2023-06-14T16:04:50;11.60;;;3.58;;
22040;SDS011;11184;52.444;13.578;2023-06-14T16:07:34;5.30;;;3.10;;
22040;SDS011;11184;52.444;13.578;2023-06-14T16:10:18;7.22;;;2.50;;
22040;SDS011;11184;52.444;13.578;2023-06-14T16:13:03;9.68;;;3.40;;
22040;SDS011;11184;52.444;13.578;2023-06-14T16:15:48;4.85;;;2.90;;
22040;SDS011;11184;52.444;13.578;2023-06-14T16:18:33;4.60;;;2.95;;
22040;SDS011;11184;52.444;13.578;2023-06-14T16:21:17;3.03;;;2.72;;
22040;SDS011;11184;52.444;13.578;2023-06-14T16:24:03;16.58;;;2.60;;
22040;SDS011;11184;52.444;13.578;2023-06-14T16:26:48;5.32;;;2.38;;
22040;SDS011;11184;52.444;13.578;2023-06-14T16:29:33;5.95;;;2.33;;
22040;SDS011;11184;52.444;13.578;2023-06-14T16:32:19;8.52;;;2.67;;
22040;SDS011;11184;52.444;13.578;2023-06-14T16:35:03;2.83;;;2.13;;
22040;SDS011;11184;52.444;13.578;2023-06-14T16:37:48;6.35;;;3.17;;
22040;SDS011;11184;52.444;13.578;2023-06-14T16:40:33;3.67;;;2.42;;
22040;SDS011;11184;52.444;13.578;2023-06-14T16:43:18;3.17;;;2.38;;
22040;SDS011;11184;52.444;13.578;2023-06-14T16:46:02;3.60;;;2.25;;
22040;SDS011;11184;52.444;13.578;2023-06-14T16:48:47;6.65;;;2.67;;
22040;SDS011;11184;52.444;13.578;2023-06-14T16:51:32;2.90;;;2.33;;
22040;SDS011;11184;52.444;13.578;2023-06-14T16:54:17;6.65;;;2.85;;
22040;SDS011;11184;52.444;13.578;2023-06-14T16:57:02;6.00;;;2.60;;
22040;SDS011;11184;52.444;13.578;2023-06-14T16:59:47;8.93;;;2.72;;
22040;SDS011;11184;52.444;13.578;2023-06-14T17:02:31;7.00;;;2.83;;
22040;SDS011;11184;52.444;13.578;2023-06-14T17:05:16;4.90;;;3.17;;
22040;SDS011;11184;52.444;13.578;2023-06-14T17:08:00;6.40;;;2.30;;
22040;SDS011;11184;52.444;13.578;2023-06-14T17:10:46;6.32;;;2.67;;
22040;SDS011;11184;52.444;13.578;2023-06-14T17:13:30;4.97;;;3.15;;
22040;SDS011;11184;52.444;13.578;2023-06-14T17:16:15;2.78;;;2.22;;
22040;SDS011;11184;52.444;13.578;2023-06-14T17:18:59;3.85;;;2.92;;
22040;SDS011;11184;52.444;13.578;2023-06-14T17:21:44;4.00;;;2.40;;
22040;SDS011;11184;52.444;13.578;2023-06-14T17:24:32;4.53;;;3.03;;
22040;SDS011;11184;52.444;13.578;2023-06-14T17:27:17;5.78;;;2.95;;